YM World — VROI2 — position and weather

sailwx.info

Track history (hours):
 
Tides and Currents Weather Stations Pressure Air Temp Water Temp Dewpoint Dewpoint Depression Visibility Wind Speed Wind Dir Waves Ship Positions

YM World

Last reported at 2018-Jun-10 20:55 UTC. Time now 2018-Jun-19 01:17 UTC.
Position N 35°14' E 034°33'.
Warning: this ship's position is 8 days out of date.

Length 368 m; draft 13.5 m.

Type: Ship (hazmat cat D). MMSI: 477478800.

Date/timePositionNaut miles runAvg speedWind from/ knotsBaromVisibWave heightAir tempDewpointWater temp
2018-Jun-10 20:55N 35°14' E 034°33'89 3.0
2018-Jun-09 14:50N 36°43' E 034°43'0 0.0
2018-Jun-09 13:55N 36°43' E 034°43'0 0.0
2018-Jun-09 13:25N 36°43' E 034°43'0 0.0
2018-Jun-09 12:58N 36°43' E 034°43'0 0.0
2018-Jun-09 12:03N 36°43' E 034°43'0 0.0
2018-Jun-09 12:00N 36°43' E 034°43'0 0.0
2018-Jun-08 13:28N 36°43' E 034°43'185 8.5
2018-Jun-07 15:43N 35°50' E 031°03'313.5
2018-Jun-07 15:30N 35°50' E 030°60'2413.3
2018-Jun-07 13:40N 35°50' E 030°30'213.2
2018-Jun-07 13:30N 35°50' E 030°27'1513.4
2018-Jun-07 12:23N 35°50' E 030°08'22611.6
2018-Jun-06 16:49N 37°30' E 025°55'411.8
2018-Jun-06 16:30N 37°33' E 025°54'  
2018-Jun-04 07:40N 39°55' E 025°52'213.5
2018-Jun-04 07:30N 39°56' E 025°54'1212.3
2018-Jun-04 06:34N 40°01' E 026°07'112.6
2018-Jun-04 06:28N 40°02' E 026°09'10710.3
2018-Jun-03 20:05N 40°49' E 028°15'111.2
2018-Jun-03 20:00N 40°48' E 028°15'5 2.9
2018-Jun-03 18:28N 40°43' E 028°16'1 0.8
2018-Jun-03 17:07N 40°42' E 028°15'20 3.9
2018-Jun-03 12:03N 40°45' E 028°41'0 8.0
2018-Jun-03 12:00N 40°46' E 028°42'6 9.9
2018-Jun-03 11:22N 40°45' E 028°50'510.5
2018-Jun-03 10:51N 40°44' E 028°57'510.6
2018-Jun-03 10:23N 40°45' E 029°03'  
Track history (hours):
 
Tides and Currents Weather Stations Pressure Air Temp Water Temp Dewpoint Dewpoint Depression Visibility Wind Speed Wind Dir Waves Ship Positions

YM World

Last reported at 2018-Jun-10 20:55 UTC. Time now 2018-Jun-19 01:17 UTC.
Position N 35°14' E 034°33'.
Warning: this ship's position is 8 days out of date.

Length 368 m; draft 13.5 m.

Type: Ship (hazmat cat D). MMSI: 477478800.

Date/timePositionNaut miles runAvg speedWind from/ knotsBaromVisibWave heightAir tempDewpointWater temp
2018-Jun-10 20:55N 35°14' E 034°33'89 3.0
2018-Jun-09 14:50N 36°43' E 034°43'0 0.0
2018-Jun-09 13:55N 36°43' E 034°43'0 0.0
2018-Jun-09 13:25N 36°43' E 034°43'0 0.0
2018-Jun-09 12:58N 36°43' E 034°43'0 0.0
2018-Jun-09 12:03N 36°43' E 034°43'0 0.0
2018-Jun-09 12:00N 36°43' E 034°43'0 0.0
2018-Jun-08 13:28N 36°43' E 034°43'185 8.5
2018-Jun-07 15:43N 35°50' E 031°03'313.5
2018-Jun-07 15:30N 35°50' E 030°60'2413.3
2018-Jun-07 13:40N 35°50' E 030°30'213.2
2018-Jun-07 13:30N 35°50' E 030°27'1513.4
2018-Jun-07 12:23N 35°50' E 030°08'22611.6
2018-Jun-06 16:49N 37°30' E 025°55'411.8
2018-Jun-06 16:30N 37°33' E 025°54'  
2018-Jun-04 07:40N 39°55' E 025°52'213.5
2018-Jun-04 07:30N 39°56' E 025°54'1212.3
2018-Jun-04 06:34N 40°01' E 026°07'112.6
2018-Jun-04 06:28N 40°02' E 026°09'10710.3
2018-Jun-03 20:05N 40°49' E 028°15'111.2
2018-Jun-03 20:00N 40°48' E 028°15'5 2.9
2018-Jun-03 18:28N 40°43' E 028°16'1 0.8
2018-Jun-03 17:07N 40°42' E 028°15'20 3.9
2018-Jun-03 12:03N 40°45' E 028°41'0 8.0
2018-Jun-03 12:00N 40°46' E 028°42'6 9.9
2018-Jun-03 11:22N 40°45' E 028°50'510.5
2018-Jun-03 10:51N 40°44' E 028°57'510.6
2018-Jun-03 10:23N 40°45' E 029°03'  

Dump ship's entire track history